createdAt,value
2019-04-16T00:00:12.178Z,13.90
2019-04-16T00:02:51.386Z,11.17
2019-04-16T00:05:29.279Z,12.03
2019-04-16T00:08:27.602Z,11.40
2019-04-16T00:11:10.859Z,12.13
2019-04-16T00:13:52.983Z,10.17
2019-04-16T00:16:21.096Z,10.50
2019-04-16T00:18:57.241Z,10.67
2019-04-16T00:21:48.029Z,11.33
2019-04-16T00:24:34.818Z,13.30
2019-04-16T00:27:02.925Z,17.83
2019-04-16T00:29:32.996Z,13.13
2019-04-16T00:32:09.122Z,10.73
2019-04-16T00:34:35.614Z,10.73
2019-04-16T00:37:03.313Z,13.37
2019-04-16T00:39:31.214Z,16.63
2019-04-16T00:41:59.453Z,12.47
2019-04-16T00:44:27.381Z,12.10
2019-04-16T00:46:55.414Z,11.53
2019-04-16T00:49:26.306Z,14.90
2019-04-16T00:51:53.604Z,11.67
2019-04-16T00:54:21.629Z,11.80
2019-04-16T00:56:49.251Z,12.60
2019-04-16T00:59:17.346Z,13.13
2019-04-16T01:01:45.290Z,10.60
2019-04-16T01:04:13.278Z,15.27
2019-04-16T01:06:41.453Z,13.73
2019-04-16T01:09:09.236Z,16.33
2019-04-16T01:11:36.896Z,10.83
2019-04-16T01:14:05.124Z,12.13
2019-04-16T01:16:33.597Z,11.13
2019-04-16T01:19:01.854Z,11.00
2019-04-16T01:21:29.506Z,11.10
2019-04-16T01:23:57.933Z,13.53
2019-04-16T01:26:26.811Z,13.97
2019-04-16T01:29:03.697Z,13.70
2019-04-16T01:31:51.269Z,11.57
2019-04-16T01:34:47.103Z,13.10
2019-04-16T01:37:28.580Z,12.57
2019-04-16T01:39:56.997Z,14.63
2019-04-16T01:42:24.628Z,13.30
2019-04-16T01:44:52.391Z,15.53
2019-04-16T01:47:20.562Z,14.27
2019-04-16T01:49:48.476Z,13.00
2019-04-16T01:52:18.947Z,11.47
2019-04-16T01:54:45.844Z,13.00
2019-04-16T01:57:14.174Z,13.30
2019-04-16T01:59:42.099Z,14.47
2019-04-16T02:02:14.789Z,15.13
2019-04-16T02:04:39.428Z,12.27
2019-04-16T02:07:07.496Z,13.77
2019-04-16T02:09:35.838Z,15.13
2019-04-16T02:12:03.945Z,15.90
2019-04-16T02:14:31.942Z,14.10
2019-04-16T02:16:59.799Z,22.87
2019-04-16T02:19:32.318Z,12.90
2019-04-16T02:21:57.648Z,13.60
2019-04-16T02:24:25.623Z,13.63
2019-04-16T02:26:54.890Z,13.83
2019-04-16T02:29:22.804Z,13.57
2019-04-16T02:31:51.810Z,13.73
2019-04-16T02:34:20.796Z,12.73
2019-04-16T02:36:49.381Z,11.80
2019-04-16T02:39:17.716Z,12.70
2019-04-16T02:41:45.672Z,14.67
2019-04-16T02:44:16.555Z,14.73
2019-04-16T02:46:43.287Z,12.23
2019-04-16T02:49:11.007Z,12.70
2019-04-16T02:51:46.704Z,12.43
2019-04-16T02:54:33.808Z,12.33
2019-04-16T02:57:17.607Z,16.17
2019-04-16T02:59:47.318Z,14.47
2019-04-16T03:02:43.584Z,15.83
2019-04-16T03:05:18.400Z,12.53
2019-04-16T03:07:46.540Z,12.57
2019-04-16T03:10:14.345Z,12.13
2019-04-16T03:12:42.469Z,13.17
2019-04-16T03:15:10.625Z,13.60
2019-04-16T03:17:43.565Z,11.97
2019-04-16T03:20:12.214Z,12.40
2019-04-16T03:22:40.779Z,13.17
2019-04-16T03:25:18.419Z,13.80
2019-04-16T03:27:46.343Z,13.27
2019-04-16T03:30:14.260Z,11.70
2019-04-16T03:32:50.178Z,12.70
2019-04-16T03:35:17.871Z,13.63
2019-04-16T03:37:45.512Z,14.87
2019-04-16T03:40:17.034Z,12.77
2019-04-16T03:42:43.385Z,16.63
2019-04-16T03:45:11.054Z,10.70
2019-04-16T03:47:38.968Z,12.87
2019-04-16T03:50:06.964Z,15.80
2019-04-16T03:52:37.454Z,15.50
2019-04-16T03:55:04.796Z,15.27
2019-04-16T03:57:33.842Z,12.70
2019-04-16T04:00:01.536Z,12.77
2019-04-16T04:02:29.709Z,13.83
2019-04-16T04:05:01.071Z,14.83
2019-04-16T04:07:27.045Z,13.30
2019-04-16T04:09:55.590Z,14.23
2019-04-16T04:12:27.635Z,16.10
2019-04-16T04:14:54.443Z,12.43
2019-04-16T04:17:23.345Z,16.23
2019-04-16T04:19:51.242Z,12.80
2019-04-16T04:22:18.901Z,12.87
2019-04-16T04:24:46.896Z,12.47
2019-04-16T04:27:18.667Z,13.93
2019-04-16T04:29:46.354Z,12.30
2019-04-16T04:32:13.940Z,15.30
2019-04-16T04:34:41.598Z,12.30
2019-04-16T04:37:09.862Z,13.90
2019-04-16T04:39:37.823Z,15.73
2019-04-16T04:42:05.789Z,12.57
2019-04-16T04:44:36.906Z,12.97
2019-04-16T04:47:03.195Z,11.83
2019-04-16T04:49:31.179Z,11.40
2019-04-16T04:51:59.205Z,10.33
2019-04-16T04:54:27.560Z,16.87
2019-04-16T04:56:56.318Z,10.70
2019-04-16T04:59:25.323Z,11.60
2019-04-16T05:01:53.256Z,12.57
2019-04-16T05:04:29.383Z,12.63
2019-04-16T05:07:00.059Z,12.30
2019-04-16T05:09:29.572Z,12.43
2019-04-16T05:11:57.560Z,12.90
2019-04-16T05:14:26.096Z,13.27
2019-04-16T05:16:54.018Z,13.97
2019-04-16T05:19:21.657Z,13.13
2019-04-16T05:21:50.043Z,13.43
2019-04-16T05:24:18.795Z,11.80
2019-04-16T05:26:46.722Z,15.77
2019-04-16T05:29:17.433Z,10.33
2019-04-16T05:31:44.293Z,13.63
2019-04-16T05:34:12.189Z,10.53
2019-04-16T05:36:46.189Z,12.23
2019-04-16T05:39:10.520Z,11.77
2019-04-16T05:41:38.428Z,11.10
2019-04-16T05:44:06.140Z,10.23
2019-04-16T05:46:34.049Z,10.53
2019-04-16T05:49:01.946Z,13.00
2019-04-16T05:51:31.432Z,12.13
2019-04-16T05:54:05.293Z,15.50
2019-04-16T05:56:40.542Z,16.70
2019-04-16T05:59:08.469Z,13.50
2019-04-16T06:01:42.354Z,13.70
2019-04-16T06:04:12.620Z,14.63
2019-04-16T06:06:43.154Z,13.00
2019-04-16T06:09:12.246Z,22.07
2019-04-16T06:11:40.736Z,14.30
2019-04-16T06:14:26.604Z,15.03
2019-04-16T06:17:32.792Z,12.87
2019-04-16T06:20:23.069Z,15.20
2019-04-16T06:23:04.041Z,12.67
2019-04-16T06:25:41.454Z,10.13
2019-04-16T06:28:32.330Z,16.30
2019-04-16T06:31:10.169Z,12.17
2019-04-16T06:33:42.292Z,18.50
2019-04-16T06:36:29.180Z,13.73
2019-04-16T06:39:19.709Z,14.57
2019-04-16T06:42:05.909Z,11.03
2019-04-16T06:44:36.341Z,14.43
2019-04-16T06:47:11.205Z,16.97
2019-04-16T06:49:54.195Z,15.97
2019-04-16T06:52:39.927Z,15.63
2019-04-16T06:55:24.737Z,17.93
2019-04-16T06:58:16.404Z,12.17
2019-04-16T07:00:55.893Z,11.80
2019-04-16T07:03:46.313Z,15.13
2019-04-16T07:06:35.890Z,14.30
2019-04-16T07:09:16.353Z,12.33
2019-04-16T07:11:54.275Z,13.23
2019-04-16T07:14:16.650Z,14.43
2019-04-16T07:16:44.810Z,11.57
2019-04-16T07:19:13.109Z,15.17
2019-04-16T07:21:41.089Z,14.23
2019-04-16T07:24:09.004Z,13.43
2019-04-16T07:26:39.426Z,13.33
2019-04-16T07:29:16.913Z,13.33
2019-04-16T07:31:58.693Z,11.50
2019-04-16T07:34:43.965Z,11.60
2019-04-16T07:37:33.212Z,12.63
2019-04-16T07:40:32.001Z,13.13
2019-04-16T07:43:19.231Z,19.57
2019-04-16T07:46:24.410Z,13.50
2019-04-16T07:49:10.766Z,11.73
2019-04-16T07:52:11.913Z,13.47
2019-04-16T07:55:09.300Z,14.90
2019-04-16T07:57:37.813Z,12.93
2019-04-16T08:00:09.483Z,15.37
2019-04-16T08:02:36.807Z,12.50
2019-04-16T08:05:07.473Z,14.80
2019-04-16T08:07:34.248Z,13.90
2019-04-16T08:10:03.295Z,14.90
2019-04-16T08:12:31.227Z,14.50
2019-04-16T08:15:12.895Z,16.90
2019-04-16T08:17:29.495Z,13.07
2019-04-16T08:19:57.621Z,14.13
2019-04-16T08:22:25.827Z,17.43
2019-04-16T08:25:02.463Z,15.00
2019-04-16T08:27:27.562Z,17.50
2019-04-16T08:29:55.760Z,20.23
2019-04-16T08:32:25.757Z,19.07
2019-04-16T08:34:53.115Z,16.80
2019-04-16T08:37:21.242Z,15.67
2019-04-16T08:39:49.211Z,15.50
2019-04-16T08:42:16.979Z,18.63
2019-04-16T08:44:45.018Z,15.00
2019-04-16T08:47:13.113Z,13.50
2019-04-16T08:49:41.321Z,14.00
2019-04-16T08:52:10.226Z,14.87
2019-04-16T08:54:38.964Z,15.43
2019-04-16T08:57:06.965Z,19.03
2019-04-16T08:59:35.542Z,16.50
2019-04-16T09:02:03.591Z,16.73
2019-04-16T09:04:34.694Z,15.43
2019-04-16T09:07:11.089Z,18.23
2019-04-16T09:09:46.787Z,15.70
2019-04-16T09:12:14.733Z,16.50
2019-04-16T09:14:56.058Z,16.40
2019-04-16T09:17:31.764Z,15.73
2019-04-16T09:20:05.600Z,15.30
2019-04-16T09:22:47.842Z,15.90
2019-04-16T09:25:32.648Z,16.80
2019-04-16T09:28:07.921Z,15.03
2019-04-16T09:30:52.456Z,17.13
2019-04-16T09:33:25.617Z,18.37
2019-04-16T09:36:18.781Z,15.40
2019-04-16T09:38:49.520Z,16.23
2019-04-16T09:41:34.355Z,17.23
2019-04-16T09:44:02.864Z,15.70
2019-04-16T09:46:50.408Z,14.90
2019-04-16T09:49:04.764Z,15.90
2019-04-16T09:51:31.085Z,14.57
2019-04-16T09:53:59.059Z,13.53
2019-04-16T09:56:29.056Z,15.50
2019-04-16T09:58:58.358Z,18.40
2019-04-16T10:01:30.509Z,16.70
2019-04-16T10:03:58.493Z,15.77
2019-04-16T10:06:26.250Z,15.20
2019-04-16T10:08:56.550Z,15.37
2019-04-16T10:11:23.364Z,16.20
2019-04-16T10:13:51.497Z,19.53
2019-04-16T10:16:21.265Z,13.90
2019-04-16T10:18:49.286Z,16.67
2019-04-16T10:21:20.123Z,13.43
2019-04-16T10:24:04.720Z,12.57
2019-04-16T10:26:32.951Z,12.60
2019-04-16T10:29:01.816Z,14.40
2019-04-16T10:31:29.902Z,17.10
2019-04-16T10:33:58.371Z,14.43
2019-04-16T10:36:26.561Z,15.40
2019-04-16T10:38:58.819Z,14.93
2019-04-16T10:41:45.947Z,14.73
2019-04-16T10:44:19.736Z,18.80
2019-04-16T10:46:58.171Z,20.77
2019-04-16T10:49:31.921Z,18.73
2019-04-16T10:52:22.322Z,14.43
2019-04-16T10:54:56.932Z,17.70
2019-04-16T10:57:47.116Z,15.00
2019-04-16T11:00:34.125Z,16.53
2019-04-16T11:03:08.048Z,15.20
2019-04-16T11:05:43.304Z,15.40
2019-04-16T11:08:11.952Z,15.70
2019-04-16T11:10:39.928Z,17.10
2019-04-16T11:13:10.827Z,16.90
2019-04-16T11:15:38.622Z,22.70
2019-04-16T11:18:07.424Z,15.80
2019-04-16T11:20:35.463Z,14.40
2019-04-16T11:23:06.853Z,16.80
2019-04-16T11:25:33.021Z,17.33
2019-04-16T11:28:00.984Z,14.70
2019-04-16T11:30:32.885Z,14.80
2019-04-16T11:33:01.212Z,16.10
2019-04-16T11:35:29.265Z,16.77
2019-04-16T11:37:57.550Z,15.17
2019-04-16T11:40:25.809Z,15.87
2019-04-16T11:42:53.720Z,18.40
2019-04-16T11:45:21.687Z,17.43
2019-04-16T11:47:50.629Z,18.23
2019-04-16T11:50:18.647Z,19.37
2019-04-16T11:52:46.932Z,19.03
2019-04-16T11:55:15.260Z,21.00
2019-04-16T11:57:42.901Z,22.50
2019-04-16T12:00:13.258Z,21.70
2019-04-16T12:03:00.035Z,20.83
2019-04-16T12:05:34.149Z,18.20
2019-04-16T12:08:30.161Z,25.90
2019-04-16T12:11:19.575Z,20.33
2019-04-16T12:14:08.656Z,21.53
2019-04-16T12:16:44.693Z,21.03
2019-04-16T12:19:30.427Z,18.40
2019-04-16T12:22:26.590Z,19.87
2019-04-16T12:25:12.225Z,21.63
2019-04-16T12:28:06.525Z,21.13
2019-04-16T12:30:39.983Z,21.30
2019-04-16T12:33:29.836Z,18.07
2019-04-16T12:36:06.793Z,21.73
2019-04-16T12:38:44.980Z,21.63
2019-04-16T12:41:29.972Z,21.10
2019-04-16T12:44:13.238Z,20.93
2019-04-16T12:46:58.662Z,19.20
2019-04-16T12:49:44.411Z,19.83
2019-04-16T12:52:23.186Z,15.53
2019-04-16T12:55:08.574Z,16.90
2019-04-16T12:57:52.463Z,16.53
2019-04-16T13:00:31.564Z,17.00
2019-04-16T13:03:35.863Z,15.70
2019-04-16T13:06:19.924Z,11.70
2019-04-16T13:09:10.782Z,21.53
2019-04-16T13:11:45.407Z,13.93
2019-04-16T13:14:32.980Z,13.50
2019-04-16T13:17:19.474Z,14.10
2019-04-16T13:20:13.729Z,12.60
2019-04-16T13:22:45.975Z,13.37
2019-04-16T13:25:21.896Z,11.60
2019-04-16T13:27:50.800Z,14.00
2019-04-16T13:30:19.295Z,12.90
2019-04-16T13:32:47.335Z,11.63
2019-04-16T13:35:15.429Z,11.60
2019-04-16T13:37:43.618Z,12.47
2019-04-16T13:40:13.502Z,9.50
2019-04-16T13:42:41.136Z,11.20
2019-04-16T13:45:28.896Z,10.27
2019-04-16T13:48:13.912Z,9.70
2019-04-16T13:50:46.700Z,11.37
2019-04-16T13:53:41.583Z,11.70
2019-04-16T13:56:31.793Z,13.40
2019-04-16T13:59:10.757Z,14.70
2019-04-16T14:01:45.957Z,12.70
2019-04-16T14:04:13.695Z,9.27
2019-04-16T14:06:41.653Z,11.00
2019-04-16T14:09:10.085Z,11.63
2019-04-16T14:11:37.843Z,10.60
2019-04-16T14:14:07.612Z,11.67
2019-04-16T14:16:35.204Z,10.00
2019-04-16T14:19:06.205Z,9.87
2019-04-16T14:21:32.749Z,11.00
2019-04-16T14:24:00.917Z,9.43
2019-04-16T14:26:28.863Z,13.47
2019-04-16T14:28:57.353Z,9.93
2019-04-16T14:31:25.844Z,8.73
2019-04-16T14:34:01.349Z,8.47
2019-04-16T14:36:29.269Z,10.90
2019-04-16T14:39:00.209Z,9.47
2019-04-16T14:44:11.249Z,7.90
2019-04-16T14:46:39.279Z,9.03
2019-04-16T14:49:07.577Z,7.43
2019-04-16T14:51:35.892Z,7.57
2019-04-16T14:54:15.807Z,12.93
2019-04-16T14:56:46.837Z,8.73
2019-04-16T14:59:35.515Z,9.07
2019-04-16T15:02:29.352Z,9.00
2019-04-16T15:05:15.849Z,10.23
2019-04-16T15:07:50.378Z,8.77
2019-04-16T15:10:26.079Z,8.70
2019-04-16T15:13:16.161Z,8.23
2019-04-16T15:16:08.400Z,9.00
2019-04-16T15:18:44.133Z,11.80
2019-04-16T15:21:30.001Z,9.47
2019-04-16T15:24:16.056Z,12.13
2019-04-16T15:27:08.847Z,8.90
2019-04-16T15:29:58.815Z,8.60
2019-04-16T15:32:44.393Z,8.77
2019-04-16T15:35:15.500Z,7.57
2019-04-16T15:37:50.347Z,12.73
2019-04-16T15:40:28.372Z,9.70
2019-04-16T15:43:21.601Z,8.80
2019-04-16T15:46:26.356Z,10.90
2019-04-16T15:49:03.075Z,8.90
2019-04-16T15:51:56.226Z,12.63
2019-04-16T15:54:35.101Z,15.20
2019-04-16T15:57:19.962Z,8.80
2019-04-16T15:59:56.537Z,9.60
2019-04-16T16:02:55.606Z,9.97
2019-04-16T16:05:27.802Z,8.77
2019-04-16T16:08:07.100Z,7.93
2019-04-16T16:10:45.445Z,10.00
2019-04-16T16:13:12.564Z,10.90
2019-04-16T16:15:41.220Z,8.00
2019-04-16T16:18:09.136Z,6.90
2019-04-16T16:20:37.333Z,7.87
2019-04-16T16:23:05.409Z,11.47
2019-04-16T16:25:33.744Z,6.23
2019-04-16T16:28:01.617Z,5.33
2019-04-16T16:30:29.787Z,5.40
2019-04-16T16:32:58.060Z,5.27
2019-04-16T16:35:25.900Z,3.93
2019-04-16T16:37:53.542Z,4.53
2019-04-16T16:40:21.434Z,2.50
2019-04-16T16:42:49.342Z,3.60
2019-04-16T16:45:17.746Z,4.47
2019-04-16T16:47:45.385Z,2.07
2019-04-16T16:50:15.427Z,2.43
2019-04-16T16:52:51.688Z,4.40
2019-04-16T16:55:25.671Z,1.70
2019-04-16T16:58:17.984Z,1.50
2019-04-16T17:01:03.648Z,1.80
2019-04-16T17:03:52.448Z,1.30
2019-04-16T17:06:20.140Z,2.13
2019-04-16T17:08:47.783Z,1.50
2019-04-16T17:11:17.014Z,1.20
2019-04-16T17:13:44.853Z,1.70
2019-04-16T17:16:14.395Z,1.00
2019-04-16T17:18:45.259Z,1.00
2019-04-16T17:21:12.586Z,1.30
2019-04-16T17:23:40.535Z,1.10
2019-04-16T17:26:08.338Z,1.10
2019-04-16T17:28:35.972Z,1.00
2019-04-16T17:31:03.824Z,1.10
2019-04-16T17:33:32.270Z,0.90
2019-04-16T17:36:00.993Z,1.13
2019-04-16T17:38:28.870Z,1.23
2019-04-16T17:41:01.330Z,0.90
2019-04-16T17:43:59.781Z,1.10
2019-04-16T17:46:36.845Z,1.40
2019-04-16T17:49:39.276Z,1.30
2019-04-16T17:52:19.228Z,1.43
2019-04-16T17:54:58.828Z,1.33
2019-04-16T17:57:48.114Z,1.20
2019-04-16T18:00:41.818Z,1.10
2019-04-16T18:03:27.586Z,1.30
2019-04-16T18:06:10.117Z,1.30
2019-04-16T18:08:55.605Z,1.30
2019-04-16T18:11:27.452Z,1.30
2019-04-16T18:14:20.918Z,2.20
2019-04-16T18:17:10.625Z,1.40
2019-04-16T18:20:00.889Z,1.50
2019-04-16T18:22:37.963Z,1.40
2019-04-16T18:25:23.631Z,1.50
2019-04-16T18:27:54.621Z,1.53
2019-04-16T18:30:44.784Z,1.30
2019-04-16T18:33:20.660Z,1.20
2019-04-16T18:35:55.148Z,1.50
2019-04-16T18:38:38.794Z,1.13
2019-04-16T18:41:15.043Z,1.37
2019-04-16T18:44:11.244Z,1.60
2019-04-16T18:46:45.150Z,3.00
2019-04-16T18:49:17.363Z,1.93
2019-04-16T18:51:45.362Z,10.50
2019-04-16T18:54:15.135Z,16.30
2019-04-16T18:56:43.425Z,12.70
2019-04-16T18:59:11.697Z,6.07
2019-04-16T19:01:40.808Z,11.33
2019-04-16T19:04:09.495Z,9.97
2019-04-16T19:06:37.744Z,10.33
2019-04-16T19:09:06.259Z,11.63
2019-04-16T19:11:34.409Z,7.93
2019-04-16T19:14:02.221Z,3.60
2019-04-16T19:16:29.928Z,2.20
2019-04-16T19:18:57.706Z,1.70
2019-04-16T19:21:26.169Z,3.70
2019-04-16T19:23:53.807Z,1.50
2019-04-16T19:26:21.444Z,4.73
2019-04-16T19:28:49.401Z,1.67
2019-04-16T19:31:22.775Z,1.60
2019-04-16T19:33:47.384Z,1.40
2019-04-16T19:36:15.695Z,1.47
2019-04-16T19:38:43.850Z,1.20
2019-04-16T19:41:11.904Z,1.40
2019-04-16T19:43:40.474Z,1.37
2019-04-16T19:46:08.382Z,1.40
2019-04-16T19:48:36.518Z,1.30
2019-04-16T19:51:07.208Z,1.33
2019-04-16T19:53:34.321Z,4.53
2019-04-16T19:56:02.337Z,1.60
2019-04-16T19:58:30.206Z,1.63
2019-04-16T20:00:59.120Z,2.10
2019-04-16T20:03:30.172Z,1.80
2019-04-16T20:05:57.150Z,2.03
2019-04-16T20:08:25.700Z,1.70
2019-04-16T20:10:53.679Z,2.30
2019-04-16T20:13:22.129Z,1.93
2019-04-16T20:15:50.185Z,1.80
2019-04-16T20:18:20.128Z,1.43
2019-04-16T20:20:50.174Z,1.80
2019-04-16T20:23:17.487Z,2.00
2019-04-16T20:25:45.164Z,1.60
2019-04-16T20:28:15.705Z,1.50
2019-04-16T20:30:42.960Z,1.80
2019-04-16T20:33:10.593Z,1.90
2019-04-16T20:35:38.891Z,4.43
2019-04-16T20:38:06.543Z,2.03
2019-04-16T20:40:34.173Z,2.70
2019-04-16T20:43:02.385Z,16.73
2019-04-16T20:45:30.256Z,60.00
2019-04-16T20:47:58.170Z,56.53
2019-04-16T20:50:26.230Z,21.13
2019-04-16T20:52:54.228Z,27.30
2019-04-16T20:55:22.143Z,9.07
2019-04-16T20:57:50.130Z,3.97
2019-04-16T21:00:23.556Z,2.17
2019-04-16T21:02:51.920Z,5.50
2019-04-16T21:05:22.400Z,2.20
2019-04-16T21:07:49.920Z,2.10
2019-04-16T21:10:18.125Z,2.30
2019-04-16T21:12:46.514Z,2.30
2019-04-16T21:15:14.159Z,9.53
2019-04-16T21:17:41.820Z,3.77
2019-04-16T21:20:09.793Z,4.53
2019-04-16T21:22:37.427Z,2.40
2019-04-16T21:25:05.610Z,2.60
2019-04-16T21:27:36.400Z,2.77
2019-04-16T21:30:10.946Z,2.10
2019-04-16T21:32:48.705Z,2.30
2019-04-16T21:35:22.816Z,2.40
2019-04-16T21:37:56.101Z,3.17
2019-04-16T21:40:24.133Z,1.97
2019-04-16T21:42:52.452Z,2.17
2019-04-16T21:45:20.428Z,2.17
2019-04-16T21:47:48.063Z,2.07
2019-04-16T21:50:17.027Z,2.23
2019-04-16T21:52:44.763Z,2.10
2019-04-16T21:55:12.500Z,2.90
2019-04-16T21:57:42.771Z,3.03
2019-04-16T22:00:19.737Z,2.10
2019-04-16T22:02:47.824Z,2.50
2019-04-16T22:05:17.703Z,2.00
2019-04-16T22:07:45.368Z,1.90
2019-04-16T22:10:13.317Z,2.30
2019-04-16T22:12:41.612Z,2.27
2019-04-16T22:15:10.080Z,4.93
2019-04-16T22:17:38.374Z,2.37
2019-04-16T22:20:06.392Z,2.20
2019-04-16T22:22:34.340Z,2.47
2019-04-16T22:25:02.380Z,2.30
2019-04-16T22:27:30.866Z,2.50
2019-04-16T22:29:58.494Z,2.50
2019-04-16T22:32:27.092Z,2.90
2019-04-16T22:34:56.286Z,2.90
2019-04-16T22:37:24.573Z,3.10
2019-04-16T22:42:34.128Z,3.00
2019-04-16T22:45:27.249Z,4.30
2019-04-16T22:47:56.326Z,3.53
2019-04-16T22:50:24.657Z,2.90
2019-04-16T22:52:52.584Z,3.70
2019-04-16T22:55:24.441Z,3.33
2019-04-16T22:57:50.216Z,3.27
2019-04-16T23:00:32.837Z,3.40
2019-04-16T23:03:00.892Z,3.20
2019-04-16T23:05:30.788Z,3.20
2019-04-16T23:07:57.892Z,3.47
2019-04-16T23:10:25.814Z,2.70
2019-04-16T23:12:53.605Z,3.27
2019-04-16T23:15:21.516Z,5.93
2019-04-16T23:17:49.415Z,3.30
2019-04-16T23:20:29.167Z,3.40
2019-04-16T23:22:47.755Z,4.00
2019-04-16T23:25:16.100Z,5.70
2019-04-16T23:27:43.737Z,4.00
2019-04-16T23:30:11.728Z,3.77
2019-04-16T23:32:39.881Z,5.40
2019-04-16T23:35:10.801Z,3.77
2019-04-16T23:37:37.421Z,4.80
2019-04-16T23:40:07.486Z,2.97
2019-04-16T23:42:36.228Z,3.87
2019-04-16T23:45:31.562Z,5.70
2019-04-16T23:48:14.694Z,3.77
2019-04-16T23:50:48.022Z,3.83
2019-04-16T23:53:33.985Z,4.13
2019-04-16T23:56:17.819Z,4.03
2019-04-16T23:59:02.636Z,4.30
